sensor_id;sensor_type;location;lat;lon;timestamp;pressure;altitude;pressure_sealevel;temperature;humidity
9969;BME280;5025;48.890;9.278;2022-11-15T00:00:27;98552.22;;;9.96;75.79
9969;BME280;5025;48.890;9.278;2022-11-15T00:02:53;98558.81;;;10.00;75.78
9969;BME280;5025;48.890;9.278;2022-11-15T00:05:19;98552.38;;;10.01;75.79
9969;BME280;5025;48.890;9.278;2022-11-15T00:07:44;98555.66;;;10.03;75.56
9969;BME280;5025;48.890;9.278;2022-11-15T00:10:09;98556.47;;;10.03;75.55
9969;BME280;5025;48.890;9.278;2022-11-15T00:12:35;98556.47;;;10.03;75.65
9969;BME280;5025;48.890;9.278;2022-11-15T00:15:00;98559.78;;;10.05;75.45
9969;BME280;5025;48.890;9.278;2022-11-15T00:17:25;98549.78;;;10.06;75.68
9969;BME280;5025;48.890;9.278;2022-11-15T00:19:51;98563.06;;;10.08;75.59
9969;BME280;5025;48.890;9.278;2022-11-15T00:22:16;98558.47;;;10.08;75.46
9969;BME280;5025;48.890;9.278;2022-11-15T00:24:41;98555.78;;;10.08;75.54
9969;BME280;5025;48.890;9.278;2022-11-15T00:27:07;98559.53;;;10.07;75.40
9969;BME280;5025;48.890;9.278;2022-11-15T00:29:33;98559.53;;;10.07;75.29
9969;BME280;5025;48.890;9.278;2022-11-15T00:31:58;98561.41;;;10.07;75.48
9969;BME280;5025;48.890;9.278;2022-11-15T00:34:23;98556.22;;;10.05;75.35
9969;BME280;5025;48.890;9.278;2022-11-15T00:36:48;98553.53;;;10.05;75.41
9969;BME280;5025;48.890;9.278;2022-11-15T00:39:14;98554.59;;;10.04;75.34
9969;BME280;5025;48.890;9.278;2022-11-15T00:41:39;98552.50;;;10.06;75.45
9969;BME280;5025;48.890;9.278;2022-11-15T00:44:04;98545.22;;;10.07;75.44
9969;BME280;5025;48.890;9.278;2022-11-15T00:46:30;98542.28;;;10.08;75.57
9969;BME280;5025;48.890;9.278;2022-11-15T00:48:55;98541.22;;;10.09;75.59
9969;BME280;5025;48.890;9.278;2022-11-15T00:51:20;98530.91;;;10.06;75.29
9969;BME280;5025;48.890;9.278;2022-11-15T00:53:46;98541.81;;;10.11;75.48
9969;BME280;5025;48.890;9.278;2022-11-15T00:56:11;98543.47;;;10.12;75.28
9969;BME280;5025;48.890;9.278;2022-11-15T00:58:36;98533.50;;;10.13;75.36
9969;BME280;5025;48.890;9.278;2022-11-15T01:01:10;98535.97;;;10.14;75.21
9969;BME280;5025;48.890;9.278;2022-11-15T01:03:37;98537.84;;;10.14;75.27
9969;BME280;5025;48.890;9.278;2022-11-15T01:06:04;98525.41;;;10.13;75.34
9969;BME280;5025;48.890;9.278;2022-11-15T01:08:29;98530.56;;;10.14;75.22
9969;BME280;5025;48.890;9.278;2022-11-15T01:10:54;98537.59;;;10.15;75.14
9969;BME280;5025;48.890;9.278;2022-11-15T01:13:20;98517.31;;;10.13;75.04
9969;BME280;5025;48.890;9.278;2022-11-15T01:15:45;98516.72;;;10.11;75.21
9969;BME280;5025;48.890;9.278;2022-11-15T01:18:10;98514.84;;;10.11;75.16
9969;BME280;5025;48.890;9.278;2022-11-15T01:20:42;98514.25;;;10.09;74.99
9969;BME280;5025;48.890;9.278;2022-11-15T01:23:07;98502.03;;;10.07;75.18
9969;BME280;5025;48.890;9.278;2022-11-15T01:25:33;98504.75;;;10.07;75.27
9969;BME280;5025;48.890;9.278;2022-11-15T01:27:58;98508.75;;;10.04;75.30
9969;BME280;5025;48.890;9.278;2022-11-15T01:30:24;98500.88;;;10.02;75.31
9969;BME280;5025;48.890;9.278;2022-11-15T01:32:49;98496.19;;;9.98;75.27
9969;BME280;5025;48.890;9.278;2022-11-15T01:35:14;98500.28;;;10.00;75.26
9969;BME280;5025;48.890;9.278;2022-11-15T01:37:40;98498.03;;;9.97;75.42
9969;BME280;5025;48.890;9.278;2022-11-15T01:40:05;98497.69;;;9.94;75.44
9969;BME280;5025;48.890;9.278;2022-11-15T01:42:31;98500.16;;;9.95;74.97
9969;BME280;5025;48.890;9.278;2022-11-15T01:44:56;98507.28;;;9.90;75.23
9969;BME280;5025;48.890;9.278;2022-11-15T01:47:25;98497.19;;;9.85;75.30
9969;BME280;5025;48.890;9.278;2022-11-15T01:50:05;98499.53;;;9.81;75.35
9969;BME280;5025;48.890;9.278;2022-11-15T01:52:33;98489.69;;;9.75;75.75
9969;BME280;5025;48.890;9.278;2022-11-15T01:57:25;98493.88;;;9.71;75.89
9969;BME280;5025;48.890;9.278;2022-11-15T01:59:51;98487.31;;;9.67;75.96
9969;BME280;5025;48.890;9.278;2022-11-15T02:02:16;98494.34;;;9.68;76.04
9969;BME280;5025;48.890;9.278;2022-11-15T02:04:46;98489.03;;;9.61;76.07
9969;BME280;5025;48.890;9.278;2022-11-15T02:07:16;98488.69;;;9.58;76.11
9969;BME280;5025;48.890;9.278;2022-11-15T02:09:43;98488.53;;;9.52;76.42
9969;BME280;5025;48.890;9.278;2022-11-15T02:12:09;98482.56;;;9.50;76.32
9969;BME280;5025;48.890;9.278;2022-11-15T02:14:37;98487.38;;;9.48;76.38
9969;BME280;5025;48.890;9.278;2022-11-15T02:22:36;98475.97;;;9.46;76.89
9969;BME280;5025;48.890;9.278;2022-11-15T02:25:37;98475.53;;;9.49;76.85
9969;BME280;5025;48.890;9.278;2022-11-15T02:28:21;98465.59;;;9.50;76.46
9969;BME280;5025;48.890;9.278;2022-11-15T02:30:53;98459.56;;;9.48;76.83
9969;BME280;5025;48.890;9.278;2022-11-15T02:36:06;98463.19;;;9.42;76.77
9969;BME280;5025;48.890;9.278;2022-11-15T02:38:51;98454.06;;;9.43;76.93
9969;BME280;5025;48.890;9.278;2022-11-15T02:41:40;98452.41;;;9.42;77.01
9969;BME280;5025;48.890;9.278;2022-11-15T02:46:48;98451.09;;;9.32;77.48
9969;BME280;5025;48.890;9.278;2022-11-15T02:49:34;98452.50;;;9.35;77.17
9969;BME280;5025;48.890;9.278;2022-11-15T02:52:00;98452.50;;;9.35;77.39
9969;BME280;5025;48.890;9.278;2022-11-15T02:54:29;98448.16;;;9.34;77.18
9969;BME280;5025;48.890;9.278;2022-11-15T02:57:10;98450.63;;;9.36;77.29
9969;BME280;5025;48.890;9.278;2022-11-15T03:07:56;98448.25;;;9.27;77.38
9969;BME280;5025;48.890;9.278;2022-11-15T03:10:40;98433.13;;;9.26;77.37
9969;BME280;5025;48.890;9.278;2022-11-15T03:16:10;98437.25;;;9.29;77.31
9969;BME280;5025;48.890;9.278;2022-11-15T03:18:41;98432.69;;;9.29;77.40
9969;BME280;5025;48.890;9.278;2022-11-15T03:21:11;98428.38;;;9.28;77.22
9969;BME280;5025;48.890;9.278;2022-11-15T03:23:38;98427.06;;;9.31;77.29
9969;BME280;5025;48.890;9.278;2022-11-15T03:26:09;98418.97;;;9.31;77.49
9969;BME280;5025;48.890;9.278;2022-11-15T03:28:40;98426.84;;;9.32;77.33
9969;BME280;5025;48.890;9.278;2022-11-15T03:31:08;98414.88;;;9.28;77.42
9969;BME280;5025;48.890;9.278;2022-11-15T03:33:57;98413.81;;;9.29;77.36
9969;BME280;5025;48.890;9.278;2022-11-15T03:36:24;98424.81;;;9.28;77.39
9969;BME280;5025;48.890;9.278;2022-11-15T03:38:53;98415.34;;;9.25;77.32
9969;BME280;5025;48.890;9.278;2022-11-15T03:41:24;98416.38;;;9.24;77.39
9969;BME280;5025;48.890;9.278;2022-11-15T03:43:56;98410.41;;;9.22;77.63
9969;BME280;5025;48.890;9.278;2022-11-15T03:46:26;98410.06;;;9.19;77.52
9969;BME280;5025;48.890;9.278;2022-11-15T03:48:59;98415.91;;;9.15;77.75
9969;BME280;5025;48.890;9.278;2022-11-15T03:51:29;98420.09;;;9.11;77.79
9969;BME280;5025;48.890;9.278;2022-11-15T03:53:54;98421.81;;;9.06;77.70
9969;BME280;5025;48.890;9.278;2022-11-15T03:56:20;98411.16;;;8.99;77.99
9969;BME280;5025;48.890;9.278;2022-11-15T03:58:45;98400.84;;;8.96;77.88
9969;BME280;5025;48.890;9.278;2022-11-15T04:01:10;98405.63;;;8.94;78.21
9969;BME280;5025;48.890;9.278;2022-11-15T04:03:36;98392.63;;;8.91;78.33
9969;BME280;5025;48.890;9.278;2022-11-15T04:06:01;98391.78;;;8.90;78.54
9969;BME280;5025;48.890;9.278;2022-11-15T04:08:26;98390.50;;;8.93;78.41
9969;BME280;5025;48.890;9.278;2022-11-15T04:10:52;98392.16;;;8.94;78.54
9969;BME280;5025;48.890;9.278;2022-11-15T04:13:17;98393.78;;;8.95;78.59
9969;BME280;5025;48.890;9.278;2022-11-15T04:15:42;98388.41;;;8.95;78.53
9969;BME280;5025;48.890;9.278;2022-11-15T04:18:07;98381.16;;;8.95;78.41
9969;BME280;5025;48.890;9.278;2022-11-15T04:20:33;98387.38;;;8.96;78.66
9969;BME280;5025;48.890;9.278;2022-11-15T04:23:22;98398.81;;;8.91;78.84
9969;BME280;5025;48.890;9.278;2022-11-15T04:26:17;98402.19;;;8.87;79.06
9969;BME280;5025;48.890;9.278;2022-11-15T04:28:43;98395.59;;;8.83;79.02
9969;BME280;5025;48.890;9.278;2022-11-15T04:31:28;98390.91;;;8.78;79.18
9969;BME280;5025;48.890;9.278;2022-11-15T04:33:53;98387.41;;;8.77;79.35
9969;BME280;5025;48.890;9.278;2022-11-15T04:36:19;98391.75;;;8.78;79.58
9969;BME280;5025;48.890;9.278;2022-11-15T04:39:03;98386.59;;;8.77;79.32
9969;BME280;5025;48.890;9.278;2022-11-15T04:41:29;98387.03;;;8.74;79.36
9969;BME280;5025;48.890;9.278;2022-11-15T04:43:54;98398.84;;;8.73;79.18
9969;BME280;5025;48.890;9.278;2022-11-15T04:46:21;98389.56;;;8.69;79.37
9969;BME280;5025;48.890;9.278;2022-11-15T04:48:46;98386.28;;;8.67;79.67
9969;BME280;5025;48.890;9.278;2022-11-15T04:51:11;98384.06;;;8.64;79.55
9969;BME280;5025;48.890;9.278;2022-11-15T04:53:37;98374.56;;;8.61;79.90
9969;BME280;5025;48.890;9.278;2022-11-15T04:56:02;98373.16;;;8.58;79.97
9969;BME280;5025;48.890;9.278;2022-11-15T04:58:27;98371.03;;;8.60;79.82
9969;BME280;5025;48.890;9.278;2022-11-15T05:00:53;98366.47;;;8.61;79.97
9969;BME280;5025;48.890;9.278;2022-11-15T05:03:18;98370.81;;;8.62;80.03
9969;BME280;5025;48.890;9.278;2022-11-15T05:06:02;98364.41;;;8.63;79.98
9969;BME280;5025;48.890;9.278;2022-11-15T05:08:28;98362.28;;;8.65;80.03
9969;BME280;5025;48.890;9.278;2022-11-15T05:10:53;98364.41;;;8.63;79.88
9969;BME280;5025;48.890;9.278;2022-11-15T05:13:18;98367.53;;;8.60;80.14
9969;BME280;5025;48.890;9.278;2022-11-15T05:15:44;98359.31;;;8.55;80.27
9969;BME280;5025;48.890;9.278;2022-11-15T05:18:09;98364.69;;;8.55;80.35
9969;BME280;5025;48.890;9.278;2022-11-15T05:20:35;98352.53;;;8.52;80.33
9969;BME280;5025;48.890;9.278;2022-11-15T05:23:00;98359.97;;;8.50;80.46
9969;BME280;5025;48.890;9.278;2022-11-15T05:25:26;98356.94;;;8.47;80.51
9969;BME280;5025;48.890;9.278;2022-11-15T05:27:51;98357.97;;;8.46;80.53
9969;BME280;5025;48.890;9.278;2022-11-15T05:30:17;98343.47;;;8.47;80.73
9969;BME280;5025;48.890;9.278;2022-11-15T05:32:43;98338.09;;;8.47;80.73
9969;BME280;5025;48.890;9.278;2022-11-15T05:35:12;98348.03;;;8.46;80.86
9969;BME280;5025;48.890;9.278;2022-11-15T05:37:40;98352.13;;;8.49;80.66
9969;BME280;5025;48.890;9.278;2022-11-15T05:40:06;98355.91;;;8.48;80.76
9969;BME280;5025;48.890;9.278;2022-11-15T05:42:32;98353.19;;;8.48;80.92
9969;BME280;5025;48.890;9.278;2022-11-15T05:44:57;98345.94;;;8.48;80.89
9969;BME280;5025;48.890;9.278;2022-11-15T05:47:26;98344.28;;;8.47;81.18
9969;BME280;5025;48.890;9.278;2022-11-15T05:49:54;98341.81;;;8.46;80.70
9969;BME280;5025;48.890;9.278;2022-11-15T05:52:24;98341.00;;;8.45;81.08
9969;BME280;5025;48.890;9.278;2022-11-15T05:54:50;98341.00;;;8.45;81.15
9969;BME280;5025;48.890;9.278;2022-11-15T05:57:17;98333.16;;;8.43;81.14
9969;BME280;5025;48.890;9.278;2022-11-15T05:59:43;98339.13;;;8.46;81.30
9969;BME280;5025;48.890;9.278;2022-11-15T06:02:09;98337.28;;;8.46;81.22
9969;BME280;5025;48.890;9.278;2022-11-15T06:04:35;98335.84;;;8.43;81.42
9969;BME280;5025;48.890;9.278;2022-11-15T06:07:01;98337.31;;;8.39;81.66
9969;BME280;5025;48.890;9.278;2022-11-15T06:09:26;98349.72;;;8.40;81.67
9969;BME280;5025;48.890;9.278;2022-11-15T06:11:52;98353.22;;;8.41;81.73
9969;BME280;5025;48.890;9.278;2022-11-15T06:14:17;98342.69;;;8.39;81.70
9969;BME280;5025;48.890;9.278;2022-11-15T06:16:43;98345.78;;;8.43;81.58
9969;BME280;5025;48.890;9.278;2022-11-15T06:19:08;98344.13;;;8.42;81.77
9969;BME280;5025;48.890;9.278;2022-11-15T06:21:34;98351.38;;;8.41;81.70
9969;BME280;5025;48.890;9.278;2022-11-15T06:23:59;98347.25;;;8.39;81.76
9969;BME280;5025;48.890;9.278;2022-11-15T06:26:24;98354.53;;;8.38;81.82
9969;BME280;5025;48.890;9.278;2022-11-15T06:28:50;98353.69;;;8.38;81.97
9969;BME280;5025;48.890;9.278;2022-11-15T06:31:15;98352.88;;;8.37;81.96
9969;BME280;5025;48.890;9.278;2022-11-15T06:33:40;98348.75;;;8.35;81.85
9969;BME280;5025;48.890;9.278;2022-11-15T06:36:08;98346.28;;;8.33;81.89
9969;BME280;5025;48.890;9.278;2022-11-15T06:38:34;98348.38;;;8.31;81.90
9969;BME280;5025;48.890;9.278;2022-11-15T06:41:05;98352.72;;;8.32;81.95
9969;BME280;5025;48.890;9.278;2022-11-15T06:43:31;98345.09;;;8.29;81.88
9969;BME280;5025;48.890;9.278;2022-11-15T06:46:00;98346.16;;;8.28;82.12
9969;BME280;5025;48.890;9.278;2022-11-15T06:48:26;98353.19;;;8.29;82.25
9969;BME280;5025;48.890;9.278;2022-11-15T06:50:53;98348.38;;;8.31;82.19
9969;BME280;5025;48.890;9.278;2022-11-15T06:53:18;98346.72;;;8.30;82.19
9969;BME280;5025;48.890;9.278;2022-11-15T06:55:43;98352.94;;;8.31;82.15
9969;BME280;5025;48.890;9.278;2022-11-15T06:58:09;98355.66;;;8.31;82.17
9969;BME280;5025;48.890;9.278;2022-11-15T07:00:34;98361.84;;;8.31;82.34
9969;BME280;5025;48.890;9.278;2022-11-15T07:03:00;98367.22;;;8.31;82.08
9969;BME280;5025;48.890;9.278;2022-11-15T07:05:26;98361.84;;;8.31;82.21
9969;BME280;5025;48.890;9.278;2022-11-15T07:07:56;98363.50;;;8.32;82.18
9969;BME280;5025;48.890;9.278;2022-11-15T07:10:23;98359.97;;;8.32;82.16
9969;BME280;5025;48.890;9.278;2022-11-15T07:12:50;98364.06;;;8.34;82.09
9969;BME280;5025;48.890;9.278;2022-11-15T07:15:18;98371.69;;;8.37;82.06
9969;BME280;5025;48.890;9.278;2022-11-15T07:17:44;98371.47;;;8.39;82.03
9969;BME280;5025;48.890;9.278;2022-11-15T07:20:10;98372.69;;;8.43;82.19
9969;BME280;5025;48.890;9.278;2022-11-15T07:22:35;98375.19;;;8.45;82.05
9969;BME280;5025;48.890;9.278;2022-11-15T07:25:01;98368.72;;;8.46;82.07
9969;BME280;5025;48.890;9.278;2022-11-15T07:27:26;98367.25;;;8.50;82.14
9969;BME280;5025;48.890;9.278;2022-11-15T07:29:51;98377.56;;;8.53;81.98
9969;BME280;5025;48.890;9.278;2022-11-15T07:32:17;98380.25;;;8.53;81.83
9969;BME280;5025;48.890;9.278;2022-11-15T07:34:42;98376.28;;;8.55;81.90
9969;BME280;5025;48.890;9.278;2022-11-15T07:37:08;98363.66;;;8.56;81.93
9969;BME280;5025;48.890;9.278;2022-11-15T07:39:33;98366.94;;;8.58;81.72
9969;BME280;5025;48.890;9.278;2022-11-15T07:41:59;98369.16;;;8.61;82.00
9969;BME280;5025;48.890;9.278;2022-11-15T07:44:43;98366.88;;;8.65;81.75
9969;BME280;5025;48.890;9.278;2022-11-15T07:47:08;98365.56;;;8.67;81.72
9969;BME280;5025;48.890;9.278;2022-11-15T07:49:33;98367.81;;;8.70;81.66
9969;BME280;5025;48.890;9.278;2022-11-15T07:51:59;98370.03;;;8.73;81.61
9969;BME280;5025;48.890;9.278;2022-11-15T07:54:24;98365.63;;;8.79;81.48
9969;BME280;5025;48.890;9.278;2022-11-15T07:56:49;98365.75;;;8.84;81.27
9969;BME280;5025;48.890;9.278;2022-11-15T07:59:14;98361.56;;;8.88;81.29
9969;BME280;5025;48.890;9.278;2022-11-15T08:01:40;98358.19;;;8.93;81.20
9969;BME280;5025;48.890;9.278;2022-11-15T08:04:09;98351.31;;;8.97;81.18
9969;BME280;5025;48.890;9.278;2022-11-15T08:06:34;98352.03;;;9.04;81.37
9969;BME280;5025;48.890;9.278;2022-11-15T08:09:00;98351.34;;;9.09;80.97
9969;BME280;5025;48.890;9.278;2022-11-15T08:11:25;98349.59;;;9.14;81.05
9969;BME280;5025;48.890;9.278;2022-11-15T08:13:50;98348.56;;;9.15;80.84
9969;BME280;5025;48.890;9.278;2022-11-15T08:16:16;98336.72;;;9.17;80.58
9969;BME280;5025;48.890;9.278;2022-11-15T08:18:41;98336.25;;;9.20;80.85
9969;BME280;5025;48.890;9.278;2022-11-15T08:21:09;98334.16;;;9.22;80.97
9969;BME280;5025;48.890;9.278;2022-11-15T08:23:34;98337.22;;;9.25;80.98
9969;BME280;5025;48.890;9.278;2022-11-15T08:26:04;98322.22;;;9.29;80.72
9969;BME280;5025;48.890;9.278;2022-11-15T08:28:30;98321.88;;;9.38;80.67
9969;BME280;5025;48.890;9.278;2022-11-15T08:30:56;98325.50;;;9.43;80.42
9969;BME280;5025;48.890;9.278;2022-11-15T08:33:21;98323.66;;;9.44;80.53
9969;BME280;5025;48.890;9.278;2022-11-15T08:35:47;98326.13;;;9.45;80.44
9969;BME280;5025;48.890;9.278;2022-11-15T08:38:13;98323.78;;;9.49;80.30
9969;BME280;5025;48.890;9.278;2022-11-15T08:40:38;98318.72;;;9.52;80.23
9969;BME280;5025;48.890;9.278;2022-11-15T08:43:04;98311.34;;;9.60;80.17
9969;BME280;5025;48.890;9.278;2022-11-15T08:45:30;98309.38;;;9.67;79.96
9969;BME280;5025;48.890;9.278;2022-11-15T08:47:56;98312.75;;;9.74;79.82
9969;BME280;5025;48.890;9.278;2022-11-15T08:50:21;98299.41;;;9.79;79.75
9969;BME280;5025;48.890;9.278;2022-11-15T08:52:47;98297.84;;;9.83;79.61
9969;BME280;5025;48.890;9.278;2022-11-15T08:55:13;98299.38;;;9.91;79.47
9969;BME280;5025;48.890;9.278;2022-11-15T08:57:39;98297.16;;;10.00;79.42
9969;BME280;5025;48.890;9.278;2022-11-15T09:00:05;98294.91;;;10.09;79.20
9969;BME280;5025;48.890;9.278;2022-11-15T09:02:31;98293.72;;;10.16;79.09
9969;BME280;5025;48.890;9.278;2022-11-15T09:04:56;98298.50;;;10.26;79.08
9969;BME280;5025;48.890;9.278;2022-11-15T09:07:21;98295.22;;;10.36;78.99
9969;BME280;5025;48.890;9.278;2022-11-15T09:09:47;98292.63;;;10.41;79.02
9969;BME280;5025;48.890;9.278;2022-11-15T09:12:12;98293.44;;;10.42;78.86
9969;BME280;5025;48.890;9.278;2022-11-15T09:14:38;98284.38;;;10.48;78.92
9969;BME280;5025;48.890;9.278;2022-11-15T09:17:03;98293.97;;;10.55;78.78
9969;BME280;5025;48.890;9.278;2022-11-15T09:19:28;98285.97;;;10.61;78.87
9969;BME280;5025;48.890;9.278;2022-11-15T09:21:54;98293.50;;;10.58;78.79
9969;BME280;5025;48.890;9.278;2022-11-15T09:24:19;98290.81;;;10.58;78.73
9969;BME280;5025;48.890;9.278;2022-11-15T09:26:45;98294.63;;;10.63;78.67
9969;BME280;5025;48.890;9.278;2022-11-15T09:29:10;98282.88;;;10.69;78.78
9969;BME280;5025;48.890;9.278;2022-11-15T09:31:36;98282.50;;;10.77;78.48
9969;BME280;5025;48.890;9.278;2022-11-15T09:34:01;98281.41;;;10.78;78.19
9969;BME280;5025;48.890;9.278;2022-11-15T09:36:26;98281.59;;;10.88;77.94
9969;BME280;5025;48.890;9.278;2022-11-15T09:38:52;98275.25;;;10.94;77.85
9969;BME280;5025;48.890;9.278;2022-11-15T09:41:34;98274.34;;;11.06;77.49
9969;BME280;5025;48.890;9.278;2022-11-15T09:49:29;98272.56;;;11.28;77.07
9969;BME280;5025;48.890;9.278;2022-11-15T09:51:56;98272.38;;;11.35;76.91
9969;BME280;5025;48.890;9.278;2022-11-15T09:57:11;98267.06;;;11.57;76.48
9969;BME280;5025;48.890;9.278;2022-11-15T10:02:33;98263.88;;;11.82;75.95
9969;BME280;5025;48.890;9.278;2022-11-15T10:05:01;98251.91;;;11.95;75.84
9969;BME280;5025;48.890;9.278;2022-11-15T10:12:35;98252.97;;;12.38;74.72
9969;BME280;5025;48.890;9.278;2022-11-15T10:15:09;98247.31;;;12.40;74.64
9969;BME280;5025;48.890;9.278;2022-11-15T10:18:27;98244.34;;;12.42;74.42
9969;BME280;5025;48.890;9.278;2022-11-15T10:20:44;98235.16;;;12.43;74.42
9969;BME280;5025;48.890;9.278;2022-11-15T10:23:14;98233.56;;;12.47;74.15
9969;BME280;5025;48.890;9.278;2022-11-15T10:25:39;98238.47;;;12.50;73.89
9969;BME280;5025;48.890;9.278;2022-11-15T10:28:19;98226.81;;;12.49;73.66
9969;BME280;5025;48.890;9.278;2022-11-15T10:30:49;98228.22;;;12.52;73.47
9969;BME280;5025;48.890;9.278;2022-11-15T10:33:25;98217.94;;;12.54;73.41
9969;BME280;5025;48.890;9.278;2022-11-15T10:46:36;98203.66;;;12.64;72.61
9969;BME280;5025;48.890;9.278;2022-11-15T10:49:19;98196.91;;;12.66;72.55
9969;BME280;5025;48.890;9.278;2022-11-15T10:51:53;98192.56;;;12.65;72.30
9969;BME280;5025;48.890;9.278;2022-11-15T10:54:36;98184.94;;;12.62;72.52
9969;BME280;5025;48.890;9.278;2022-11-15T10:57:18;98188.25;;;12.64;72.57
9969;BME280;5025;48.890;9.278;2022-11-15T11:00:26;98178.47;;;12.63;72.60
9969;BME280;5025;48.890;9.278;2022-11-15T11:05:40;98177.34;;;12.59;72.93
9969;BME280;5025;48.890;9.278;2022-11-15T11:10:36;98177.91;;;12.61;72.88
9969;BME280;5025;48.890;9.278;2022-11-15T11:13:22;98173.06;;;12.63;73.01
9969;BME280;5025;48.890;9.278;2022-11-15T11:18:38;98175.75;;;12.63;72.88
9969;BME280;5025;48.890;9.278;2022-11-15T11:21:23;98170.91;;;12.65;72.93
9969;BME280;5025;48.890;9.278;2022-11-15T11:24:08;98173.09;;;12.68;72.76
9969;BME280;5025;48.890;9.278;2022-11-15T11:40:32;98157.97;;;12.72;72.47
9969;BME280;5025;48.890;9.278;2022-11-15T11:43:09;98153.66;;;12.77;72.58
9969;BME280;5025;48.890;9.278;2022-11-15T11:50:52;98140.75;;;12.89;72.48
9969;BME280;5025;48.890;9.278;2022-11-15T11:53:45;98126.69;;;12.92;72.37
9969;BME280;5025;48.890;9.278;2022-11-15T11:56:25;98131.06;;;12.98;72.51
9969;BME280;5025;48.890;9.278;2022-11-15T11:58:53;98130.56;;;13.01;72.58
9969;BME280;5025;48.890;9.278;2022-11-15T12:01:44;98127.31;;;13.04;72.61
9969;BME280;5025;48.890;9.278;2022-11-15T12:04:15;98126.81;;;13.07;72.76
9969;BME280;5025;48.890;9.278;2022-11-15T12:07:31;98120.03;;;13.10;72.69
9969;BME280;5025;48.890;9.278;2022-11-15T12:09:50;98116.25;;;13.16;72.91
9969;BME280;5025;48.890;9.278;2022-11-15T12:15:17;98108.97;;;13.22;72.45
9969;BME280;5025;48.890;9.278;2022-11-15T12:17:44;98103.03;;;13.25;72.48
9969;BME280;5025;48.890;9.278;2022-11-15T12:20:19;98100.06;;;13.32;72.41
9969;BME280;5025;48.890;9.278;2022-11-15T12:28:47;98089.88;;;13.49;71.55
9969;BME280;5025;48.890;9.278;2022-11-15T12:31:21;98088.53;;;13.52;71.56
9969;BME280;5025;48.890;9.278;2022-11-15T12:33:49;98089.34;;;13.52;71.27
9969;BME280;5025;48.890;9.278;2022-11-15T12:41:21;98088.81;;;13.55;70.52
9969;BME280;5025;48.890;9.278;2022-11-15T12:43:47;98090.19;;;13.53;70.32
9969;BME280;5025;48.890;9.278;2022-11-15T12:49:01;98087.72;;;13.51;69.70
9969;BME280;5025;48.890;9.278;2022-11-15T13:02:40;98066.84;;;13.52;68.77
9969;BME280;5025;48.890;9.278;2022-11-15T13:15:30;98053.00;;;13.53;67.68
9969;BME280;5025;48.890;9.278;2022-11-15T13:17:57;98043.22;;;13.52;67.48
9969;BME280;5025;48.890;9.278;2022-11-15T13:20:30;98046.78;;;13.53;67.35
9969;BME280;5025;48.890;9.278;2022-11-15T13:23:00;98032.38;;;13.52;67.31
9969;BME280;5025;48.890;9.278;2022-11-15T13:30:55;98024.25;;;13.52;67.03
9969;BME280;5025;48.890;9.278;2022-11-15T13:35:50;98021.78;;;13.51;66.75
9969;BME280;5025;48.890;9.278;2022-11-15T13:38:31;98022.63;;;13.51;66.58
9969;BME280;5025;48.890;9.278;2022-11-15T13:40:58;98018.28;;;13.50;66.47
9969;BME280;5025;48.890;9.278;2022-11-15T13:43:31;98017.47;;;13.50;66.75
9969;BME280;5025;48.890;9.278;2022-11-15T13:48:47;98002.28;;;13.49;66.49
9969;BME280;5025;48.890;9.278;2022-11-15T13:53:51;98006.06;;;13.48;66.47
9969;BME280;5025;48.890;9.278;2022-11-15T13:56:20;98006.63;;;13.50;66.40
9969;BME280;5025;48.890;9.278;2022-11-15T13:58:46;98005.25;;;13.47;66.55
9969;BME280;5025;48.890;9.278;2022-11-15T14:01:19;97991.16;;;13.45;66.39
9969;BME280;5025;48.890;9.278;2022-11-15T14:03:57;97993.03;;;13.44;66.23
9969;BME280;5025;48.890;9.278;2022-11-15T14:06:25;97983.28;;;13.43;66.36
9969;BME280;5025;48.890;9.278;2022-11-15T14:11:34;97980.56;;;13.43;65.94
9969;BME280;5025;48.890;9.278;2022-11-15T14:19:01;97968.63;;;13.44;65.90
9969;BME280;5025;48.890;9.278;2022-11-15T14:21:27;97970.53;;;13.44;65.49
9969;BME280;5025;48.890;9.278;2022-11-15T14:23:53;97967.81;;;13.44;65.72
9969;BME280;5025;48.890;9.278;2022-11-15T14:26:33;97963.72;;;13.41;65.67
9969;BME280;5025;48.890;9.278;2022-11-15T14:29:25;97950.16;;;13.41;65.71
9969;BME280;5025;48.890;9.278;2022-11-15T14:31:52;97941.75;;;13.38;65.67
9969;BME280;5025;48.890;9.278;2022-11-15T14:34:17;97949.09;;;13.37;65.92
9969;BME280;5025;48.890;9.278;2022-11-15T14:36:43;97941.50;;;13.34;65.79
9969;BME280;5025;48.890;9.278;2022-11-15T14:39:09;97939.84;;;13.33;66.04
9969;BME280;5025;48.890;9.278;2022-11-15T14:41:36;97934.44;;;13.33;66.00
9969;BME280;5025;48.890;9.278;2022-11-15T14:44:04;97936.56;;;13.31;66.16
9969;BME280;5025;48.890;9.278;2022-11-15T14:46:30;97934.13;;;13.30;66.47
9969;BME280;5025;48.890;9.278;2022-11-15T14:48:56;97931.94;;;13.26;66.34
9969;BME280;5025;48.890;9.278;2022-11-15T14:51:21;97926.78;;;13.25;66.50
9969;BME280;5025;48.890;9.278;2022-11-15T14:53:47;97920.53;;;13.24;66.85
9969;BME280;5025;48.890;9.278;2022-11-15T14:56:13;97920.81;;;13.23;67.07
9969;BME280;5025;48.890;9.278;2022-11-15T14:58:39;97912.13;;;13.21;67.01
9969;BME280;5025;48.890;9.278;2022-11-15T15:01:13;97903.72;;;13.17;67.38
9969;BME280;5025;48.890;9.278;2022-11-15T15:03:39;97905.34;;;13.13;67.41
9969;BME280;5025;48.890;9.278;2022-11-15T15:06:04;97900.19;;;13.12;67.48
9969;BME280;5025;48.890;9.278;2022-11-15T15:08:29;97899.38;;;13.11;67.77
9969;BME280;5025;48.890;9.278;2022-11-15T15:10:55;97888.81;;;13.09;67.96
9969;BME280;5025;48.890;9.278;2022-11-15T15:13:22;97888.25;;;13.07;67.94
9969;BME280;5025;48.890;9.278;2022-11-15T15:15:49;97883.13;;;13.06;67.98
9969;BME280;5025;48.890;9.278;2022-11-15T15:18:15;97880.41;;;13.06;68.02
9969;BME280;5025;48.890;9.278;2022-11-15T15:20:41;97874.16;;;13.05;67.87
9969;BME280;5025;48.890;9.278;2022-11-15T15:23:15;97866.28;;;13.04;67.85
9969;BME280;5025;48.890;9.278;2022-11-15T15:25:41;97863.56;;;13.04;67.82
9969;BME280;5025;48.890;9.278;2022-11-15T15:28:07;97866.00;;;13.05;67.85
9969;BME280;5025;48.890;9.278;2022-11-15T15:30:32;97862.50;;;13.05;67.82
9969;BME280;5025;48.890;9.278;2022-11-15T15:32:57;97869.81;;;13.04;67.71
9969;BME280;5025;48.890;9.278;2022-11-15T15:35:23;97864.09;;;12.90;68.10
9969;BME280;5025;48.890;9.278;2022-11-15T15:37:51;97861.09;;;12.87;68.46
9969;BME280;5025;48.890;9.278;2022-11-15T15:40:19;97854.28;;;12.79;68.73
9969;BME280;5025;48.890;9.278;2022-11-15T15:42:45;97860.50;;;12.74;69.04
9969;BME280;5025;48.890;9.278;2022-11-15T15:45:11;97853.47;;;12.73;69.65
9969;BME280;5025;48.890;9.278;2022-11-15T15:47:37;97851.56;;;12.74;69.48
9969;BME280;5025;48.890;9.278;2022-11-15T15:50:04;97845.34;;;12.73;69.65
9969;BME280;5025;48.890;9.278;2022-11-15T15:52:36;97835.59;;;12.72;69.88